createdAt,value
2022-07-29T00:00:00.194Z,9.00
2022-07-29T00:10:00.139Z,12.50
2022-07-29T00:20:00.374Z,11.00
2022-07-29T00:30:01.307Z,9.00
2022-07-29T00:40:00.129Z,7.40
2022-07-29T00:50:00.124Z,7.80
2022-07-29T01:00:00.133Z,11.50
2022-07-29T01:10:00.127Z,6.10
2022-07-29T01:20:00.099Z,8.00
2022-07-29T01:30:00.114Z,7.50
2022-07-29T01:40:00.171Z,7.00
2022-07-29T01:50:00.132Z,7.00
2022-07-29T02:00:00.141Z,13.30
2022-07-29T02:10:00.158Z,11.60
2022-07-29T02:20:00.148Z,8.60
2022-07-29T02:30:00.081Z,7.60
2022-07-29T02:40:00.148Z,7.90
2022-07-29T02:50:00.514Z,6.90
2022-07-29T03:00:00.135Z,6.60
2022-07-29T03:10:00.144Z,9.50
2022-07-29T03:20:00.109Z,10.20
2022-07-29T03:30:00.158Z,8.60
2022-07-29T03:40:04.170Z,7.20
2022-07-29T03:50:00.108Z,7.10
2022-07-29T04:00:00.125Z,6.60
2022-07-29T04:10:00.111Z,7.30
2022-07-29T04:20:00.104Z,6.60
2022-07-29T04:30:00.124Z,7.00
2022-07-29T04:40:00.097Z,10.30
2022-07-29T04:50:00.118Z,5.40
2022-07-29T05:00:00.146Z,12.00
2022-07-29T05:10:00.125Z,6.00
2022-07-29T05:20:00.132Z,7.00
2022-07-29T05:30:00.133Z,10.60
2022-07-29T05:40:00.131Z,7.70
2022-07-29T05:50:01.814Z,5.90
2022-07-29T06:00:00.147Z,7.30
2022-07-29T06:10:00.082Z,8.90
2022-07-29T06:20:00.131Z,12.80
2022-07-29T06:30:00.110Z,9.00
2022-07-29T06:40:00.101Z,6.10
2022-07-29T06:50:00.138Z,17.10
2022-07-29T07:00:00.135Z,6.70
2022-07-29T07:10:00.152Z,4.60
2022-07-29T07:20:00.114Z,7.40
2022-07-29T07:30:00.138Z,9.60
2022-07-29T07:40:00.079Z,11.70
2022-07-29T07:50:00.078Z,8.30
2022-07-29T08:00:00.146Z,8.70
2022-07-29T08:10:00.114Z,6.90
2022-07-29T08:20:00.088Z,7.10
2022-07-29T08:30:00.134Z,11.00
2022-07-29T08:40:00.110Z,9.00
2022-07-29T08:50:00.122Z,11.50
2022-07-29T09:00:02.529Z,6.70
2022-07-29T09:10:02.744Z,7.00
2022-07-29T09:20:00.130Z,10.40
2022-07-29T09:30:00.293Z,7.30
2022-07-29T09:40:00.126Z,13.70
2022-07-29T09:50:00.259Z,11.20
2022-07-29T10:00:00.095Z,9.30
2022-07-29T10:10:00.948Z,12.90
2022-07-29T10:20:00.144Z,18.60
2022-07-29T10:30:00.114Z,47.20
2022-07-29T10:40:00.116Z,112.50
2022-07-29T10:50:01.267Z,151.70
2022-07-29T11:00:00.114Z,164.00
2022-07-29T11:10:00.107Z,188.80
2022-07-29T11:20:00.099Z,161.90
2022-07-29T11:30:01.193Z,140.80
2022-07-29T11:40:01.870Z,400.70
2022-07-29T11:50:00.123Z,147.10
2022-07-29T12:00:04.578Z,237.80
2022-07-29T12:10:00.154Z,599.20
2022-07-29T12:20:00.163Z,696.00
2022-07-29T12:30:00.115Z,860.80
2022-07-29T12:40:00.155Z,837.50
2022-07-29T12:50:00.130Z,615.40
2022-07-29T13:00:00.138Z,833.90
2022-07-29T13:10:00.148Z,245.40
2022-07-29T13:20:00.118Z,821.90
2022-07-29T13:30:00.141Z,170.00
2022-07-29T13:40:00.203Z,520.80
2022-07-29T13:50:00.102Z,848.60
2022-07-29T14:00:00.120Z,847.80
2022-07-29T14:10:00.149Z,857.00
2022-07-29T14:20:00.141Z,805.60
2022-07-29T14:30:00.121Z,813.70
2022-07-29T14:40:00.161Z,318.70
2022-07-29T14:50:00.150Z,127.70
2022-07-29T15:00:00.147Z,129.60
2022-07-29T15:10:00.146Z,170.00
2022-07-29T15:20:00.120Z,113.50
2022-07-29T15:30:01.405Z,109.00
2022-07-29T15:40:00.367Z,133.40
2022-07-29T15:50:00.085Z,140.00
2022-07-29T16:00:00.109Z,160.90
2022-07-29T16:10:00.141Z,296.60
2022-07-29T16:20:01.268Z,136.10
2022-07-29T16:30:00.195Z,119.20
2022-07-29T16:40:00.286Z,142.50
2022-07-29T16:50:00.142Z,137.80
2022-07-29T17:00:00.319Z,146.00
2022-07-29T17:10:03.682Z,188.00
2022-07-29T17:20:00.108Z,155.10
2022-07-29T17:30:00.122Z,122.20
2022-07-29T17:40:00.594Z,174.90
2022-07-29T17:50:00.125Z,228.80
2022-07-29T18:00:00.135Z,174.10
2022-07-29T18:10:00.830Z,146.10
2022-07-29T18:20:00.136Z,255.10
2022-07-29T18:30:03.396Z,179.10
2022-07-29T18:40:00.124Z,417.80
2022-07-29T18:50:00.121Z,224.40
2022-07-29T19:00:00.149Z,418.90
2022-07-29T19:10:00.155Z,162.10
2022-07-29T19:20:00.134Z,168.30
2022-07-29T19:30:00.145Z,112.20
2022-07-29T19:40:00.137Z,69.20
2022-07-29T19:50:00.129Z,46.40
2022-07-29T20:00:01.255Z,50.40
2022-07-29T20:10:00.125Z,40.80
2022-07-29T20:20:00.133Z,43.80
2022-07-29T20:30:00.175Z,105.20
2022-07-29T20:40:00.159Z,36.00
2022-07-29T20:50:00.141Z,42.40
2022-07-29T21:00:00.142Z,26.60
2022-07-29T21:10:00.165Z,22.60
2022-07-29T21:20:00.096Z,34.70
2022-07-29T21:30:01.149Z,17.20
2022-07-29T21:40:00.138Z,31.40
2022-07-29T21:50:00.118Z,62.40
2022-07-29T22:00:02.871Z,102.50
2022-07-29T22:10:00.148Z,77.70
2022-07-29T22:20:00.119Z,40.90
2022-07-29T22:30:00.136Z,20.30
2022-07-29T22:40:00.143Z,18.90
2022-07-29T22:50:00.146Z,16.60
2022-07-29T23:00:00.133Z,16.60
2022-07-29T23:10:00.125Z,12.20
2022-07-29T23:20:00.113Z,15.20
2022-07-29T23:30:00.120Z,13.90
2022-07-29T23:40:03.881Z,12.10
2022-07-29T23:50:00.121Z,11.90
